Other Surface Observations
Issued by NWS Missoula, MT

Home | Current Version | Previous Version | Text Only | Print | Product List | Glossary On
Versions: 1 2 3 4 5 6 7 8 9 10 11 12 13 14 15 16 17 18 19 20 21 22 23 24 25 26 27 28 29 30 31 32 33 34 35 36 37 38 39 40 41 42 43 44 45 46 47 48 49 50
000
SXUS55 KMSO 260213
OSOMSO
MONTANA AWOS SUMMARY
NATIONAL WEATHER SERVICE MISSOULA MT
812 PM MDT MON MAY 25 2015

Montana AWOS Reports

LAUREL      |K6S8 260155Z AUTO 00000KT 40SM 18/07 A2989 RMK AO1 T01780067
ROUNDUP     |KRPX 260155Z AUTO 00000KT 40SM 18/07 A2981 RMK AO1 T01830067
SCOBEY      |K9S2 260155Z AUTO 15004KT 40SM 20/06 A2988 RMK AO1 T02000061
EKALAKA     |K97M 260155Z AUTO 11008KT 40SM 13/09 A2992 RMK AO1 T01280094




USA.gov is the U.S. government's official web portal to all federal, state and local government web resources and services.